Time;durP1;ratioP1;P1;durP2;ratioP2;P2;SDS_P1;SDS_P2;PMS_P1;PMS_P2;Temp;Humidity;BMP_temperature;BMP_pressure;BME280_temperature;BME280_humidity;BME280_pressure;Samples;Min_cycle;Max_cycle;Signal;HPM_P1;HPM_P2
2024/01/15 00:00:24;;;;;;;20.27;12.27;;;1.80;85.70;;;;;;957824;149;27384;-88
2024/01/15 00:02:50;;;;;;;21.13;12.20;;;1.80;85.70;;;;;;958096;146;27272;-87
2024/01/15 00:05:17;;;;;;;22.03;12.63;;;1.80;85.80;;;;;;957770;149;27323;-84
2024/01/15 00:07:44;;;;;;;23.30;12.80;;;1.80;85.90;;;;;;957766;148;27353;-86
2024/01/15 00:10:10;;;;;;;27.13;13.53;;;1.80;85.70;;;;;;957814;147;27331;-87
2024/01/15 00:12:37;;;;;;;21.03;13.27;;;1.80;85.60;;;;;;957535;149;27353;-87
2024/01/15 00:15:03;;;;;;;19.47;11.30;;;1.80;85.40;;;;;;958023;146;27368;-85
2024/01/15 00:17:30;;;;;;;19.63;12.50;;;1.80;85.40;;;;;;957961;149;27350;-87
2024/01/15 00:19:56;;;;;;;20.67;12.00;;;1.80;85.50;;;;;;957728;149;27288;-87
2024/01/15 00:22:23;;;;;;;21.97;12.40;;;1.70;85.40;;;;;;957882;149;27307;-87
2024/01/15 00:24:50;;;;;;;20.33;11.67;;;1.70;85.70;;;;;;957781;148;27311;-86
2024/01/15 00:27:16;;;;;;;19.13;11.20;;;1.70;86.40;;;;;;958205;149;27345;-87
2024/01/15 00:29:43;;;;;;;23.03;13.43;;;1.70;85.70;;;;;;957143;147;27327;-86
2024/01/15 00:32:09;;;;;;;19.77;12.77;;;1.70;85.80;;;;;;957529;148;27456;-86
2024/01/15 00:34:36;;;;;;;18.27;10.83;;;1.80;85.90;;;;;;958068;148;27349;-86
2024/01/15 00:37:03;;;;;;;17.47;10.67;;;1.80;86.00;;;;;;957474;148;27276;-83
2024/01/15 00:39:29;;;;;;;18.83;11.70;;;1.80;86.00;;;;;;957802;146;27341;-86
2024/01/15 00:41:56;;;;;;;16.23;10.63;;;1.70;86.00;;;;;;957881;149;27375;-87
2024/01/15 00:44:22;;;;;;;20.97;11.37;;;1.80;86.10;;;;;;957816;146;27371;-85
2024/01/15 00:46:49;;;;;;;20.63;11.17;;;1.70;86.20;;;;;;957697;149;27305;-84
2024/01/15 00:49:15;;;;;;;16.13;10.87;;;1.70;86.30;;;;;;958217;147;27302;-87
2024/01/15 00:51:42;;;;;;;19.60;11.37;;;1.80;86.60;;;;;;957638;148;27299;-86
2024/01/15 00:54:09;;;;;;;21.23;10.93;;;1.70;86.70;;;;;;957436;148;27251;-86
2024/01/15 00:56:35;;;;;;;17.13;10.50;;;1.70;86.80;;;;;;958048;148;27298;-83
2024/01/15 00:59:02;;;;;;;17.60;9.73;;;1.70;86.80;;;;;;957575;148;27331;-85
2024/01/15 01:01:28;;;;;;;16.53;11.20;;;1.70;87.00;;;;;;957148;146;27255;-86
2024/01/15 01:03:55;;;;;;;18.63;10.90;;;1.70;87.00;;;;;;957590;147;27334;-85
2024/01/15 01:06:22;;;;;;;19.97;11.50;;;1.60;87.00;;;;;;957272;148;27283;-85
2024/01/15 01:08:48;;;;;;;17.17;10.50;;;1.60;87.10;;;;;;957928;148;27386;-87
2024/01/15 01:11:15;;;;;;;18.80;10.57;;;1.60;87.10;;;;;;957793;149;28420;-86
2024/01/15 01:13:41;;;;;;;16.90;11.13;;;1.60;87.30;;;;;;956692;148;27367;-85
2024/01/15 01:16:08;;;;;;;15.87;10.10;;;1.60;87.40;;;;;;957934;148;27330;-85
2024/01/15 01:18:34;;;;;;;17.33;10.07;;;1.60;87.50;;;;;;956826;149;27299;-85
2024/01/15 01:21:01;;;;;;;19.00;10.73;;;1.50;87.50;;;;;;957671;147;27358;-86
2024/01/15 01:23:28;;;;;;;17.47;11.10;;;1.50;87.80;;;;;;957106;149;27408;-86
2024/01/15 01:25:54;;;;;;;15.87;10.17;;;1.50;87.90;;;;;;957303;148;27400;-86
2024/01/15 01:28:21;;;;;;;16.40;10.97;;;1.50;88.10;;;;;;957974;149;27248;-86
2024/01/15 01:30:47;;;;;;;17.93;10.47;;;1.60;88.40;;;;;;957729;146;27325;-82
2024/01/15 01:33:14;;;;;;;20.23;11.63;;;1.50;88.50;;;;;;957564;149;27338;-85
2024/01/15 01:35:41;;;;;;;18.50;11.10;;;1.60;88.70;;;;;;957547;146;27274;-86
2024/01/15 01:38:07;;;;;;;18.37;11.30;;;1.60;88.60;;;;;;958038;146;27252;-80
2024/01/15 01:40:34;;;;;;;18.83;10.17;;;1.60;88.80;;;;;;957777;146;27724;-81
2024/01/15 01:43:00;;;;;;;18.80;11.30;;;1.60;88.90;;;;;;957704;149;27443;-79
2024/01/15 01:45:27;;;;;;;17.17;10.47;;;1.60;88.90;;;;;;957402;149;27331;-79
2024/01/15 01:47:54;;;;;;;17.67;12.00;;;1.70;88.90;;;;;;957464;146;27252;-81
2024/01/15 01:50:20;;;;;;;19.80;11.87;;;1.70;88.80;;;;;;958061;147;27400;-80
2024/01/15 01:52:47;;;;;;;19.93;11.67;;;1.70;88.90;;;;;;957680;148;27411;-80
2024/01/15 01:55:13;;;;;;;17.27;10.97;;;1.70;89.00;;;;;;957804;147;27424;-79
2024/01/15 01:57:40;;;;;;;16.93;11.10;;;1.70;88.90;;;;;;957991;149;27675;-79
2024/01/15 02:00:07;;;;;;;20.43;10.77;;;1.70;88.90;;;;;;957773;146;27291;-80
2024/01/15 02:02:33;;;;;;;17.20;10.63;;;1.70;88.90;;;;;;957854;146;27291;-82
2024/01/15 02:05:00;;;;;;;17.00;10.93;;;1.70;88.90;;;;;;957693;146;27427;-81
2024/01/15 02:07:27;;;;;;;16.37;9.87;;;1.70;88.80;;;;;;957880;149;27263;-80
2024/01/15 02:09:53;;;;;;;17.20;10.43;;;1.70;88.80;;;;;;957692;148;27318;-80
2024/01/15 02:12:20;;;;;;;18.30;10.80;;;1.70;88.70;;;;;;957781;146;27419;-80
2024/01/15 02:14:46;;;;;;;18.27;10.43;;;1.70;88.80;;;;;;957720;148;27338;-79
2024/01/15 02:17:13;;;;;;;18.30;9.83;;;1.70;88.60;;;;;;958005;148;27351;-80
2024/01/15 02:19:40;;;;;;;16.23;10.07;;;1.70;88.60;;;;;;957826;148;27310;-79
2024/01/15 02:22:06;;;;;;;18.10;11.33;;;1.70;88.40;;;;;;958178;146;27388;-80
2024/01/15 02:24:33;;;;;;;18.17;9.77;;;1.70;88.40;;;;;;963945;148;27329;-82
2024/01/15 02:26:59;;;;;;;15.70;10.60;;;1.70;88.50;;;;;;964128;148;27330;-80
2024/01/15 02:29:26;;;;;;;19.93;11.60;;;1.70;88.50;;;;;;963942;146;27290;-79
2024/01/15 02:31:52;;;;;;;16.33;9.87;;;1.70;88.50;;;;;;963723;148;27330;-80
2024/01/15 02:34:19;;;;;;;17.90;11.17;;;1.70;89.00;;;;;;964106;148;27275;-80
2024/01/15 02:36:46;;;;;;;17.33;10.83;;;1.70;88.30;;;;;;964443;145;27345;-79
2024/01/15 02:39:12;;;;;;;18.83;10.50;;;1.70;88.30;;;;;;964337;148;27286;-80
2024/01/15 02:41:39;;;;;;;16.17;9.43;;;1.70;88.30;;;;;;963661;148;27310;-81
2024/01/15 02:44:05;;;;;;;18.23;10.77;;;1.70;88.20;;;;;;964184;148;27871;-80
2024/01/15 02:46:32;;;;;;;16.27;10.23;;;1.70;88.40;;;;;;964708;146;27376;-83
2024/01/15 02:48:58;;;;;;;12.60;9.40;;;1.70;88.40;;;;;;964134;148;28049;-80
2024/01/15 02:51:25;;;;;;;16.20;10.03;;;1.70;88.50;;;;;;964235;148;27386;-80
2024/01/15 02:53:52;;;;;;;16.53;10.33;;;1.70;88.40;;;;;;964341;145;27367;-80
2024/01/15 02:56:18;;;;;;;17.90;9.90;;;1.70;88.50;;;;;;964127;147;27399;-82
2024/01/15 02:58:45;;;;;;;16.73;9.87;;;1.70;88.60;;;;;;963773;148;27368;-80
2024/01/15 03:01:11;;;;;;;16.70;10.33;;;1.80;88.70;;;;;;963726;148;27372;-80
2024/01/15 03:03:38;;;;;;;17.83;10.57;;;1.80;88.70;;;;;;963580;146;27388;-80
2024/01/15 03:06:05;;;;;;;16.10;9.73;;;1.80;88.50;;;;;;964168;148;27306;-81
2024/01/15 03:08:31;;;;;;;17.87;10.53;;;1.90;88.60;;;;;;964149;146;27402;-81
2024/01/15 03:10:58;;;;;;;19.80;10.50;;;1.90;88.50;;;;;;963997;148;27392;-80
2024/01/15 03:13:24;;;;;;;14.20;9.67;;;1.90;88.50;;;;;;964319;147;27638;-81
2024/01/15 03:15:51;;;;;;;15.63;10.07;;;1.90;88.50;;;;;;964017;148;27381;-83
2024/01/15 03:18:18;;;;;;;15.20;10.00;;;2.00;88.50;;;;;;964358;148;27341;-80
2024/01/15 03:20:44;;;;;;;16.97;9.67;;;1.90;88.60;;;;;;963837;146;27273;-80
2024/01/15 03:23:11;;;;;;;16.53;9.67;;;2.00;88.70;;;;;;962264;148;27338;-81
2024/01/15 03:25:37;;;;;;;17.30;9.90;;;2.00;88.60;;;;;;957936;146;27376;-81
2024/01/15 03:28:04;;;;;;;17.73;10.50;;;2.00;88.60;;;;;;957848;148;27469;-80
2024/01/15 03:30:30;;;;;;;17.33;9.77;;;2.00;88.20;;;;;;958102;149;27427;-80
2024/01/15 03:32:57;;;;;;;16.40;9.80;;;2.00;88.80;;;;;;958006;148;27407;-80
2024/01/15 03:35:29;;;;;;;16.27;9.73;;;2.00;88.70;;;;;;958255;148;27311;-81
2024/01/15 03:37:50;;;;;;;18.67;10.40;;;2.00;88.80;;;;;;957457;146;27307;-83
2024/01/15 03:40:17;;;;;;;16.27;10.60;;;2.00;88.80;;;;;;957915;149;27350;-81
2024/01/15 03:42:43;;;;;;;18.47;9.93;;;2.00;88.90;;;;;;957783;148;27306;-83
2024/01/15 03:45:10;;;;;;;13.77;8.97;;;2.00;89.10;;;;;;957729;149;27275;-80
2024/01/15 03:47:37;;;;;;;16.93;9.93;;;2.00;89.40;;;;;;958200;148;27273;-82
2024/01/15 03:50:03;;;;;;;20.50;10.60;;;1.90;89.20;;;;;;957833;149;27354;-80
2024/01/15 03:52:30;;;;;;;17.50;10.03;;;1.90;89.40;;;;;;957900;149;27375;-80
2024/01/15 03:54:56;;;;;;;14.33;9.70;;;1.90;89.70;;;;;;957313;148;27248;-80
2024/01/15 03:57:26;;;;;;;13.40;8.90;;;1.90;89.70;;;;;;957789;146;27356;-86
2024/01/15 03:59:52;;;;;;;16.13;9.93;;;1.90;89.70;;;;;;957494;148;27351;-82
2024/01/15 04:02:19;;;;;;;14.37;8.77;;;1.80;89.50;;;;;;957838;149;27339;-79
2024/01/15 04:04:45;;;;;;;16.00;9.47;;;1.80;89.80;;;;;;957741;148;27315;-79
2024/01/15 04:07:12;;;;;;;17.00;9.83;;;1.80;89.90;;;;;;957755;149;27358;-80
2024/01/15 04:09:38;;;;;;;17.33;9.43;;;1.80;89.90;;;;;;958073;146;27463;-79
2024/01/15 04:12:05;;;;;;;17.77;10.17;;;1.80;90.10;;;;;;958104;149;28307;-79
2024/01/15 04:14:32;;;;;;;15.67;8.93;;;1.80;90.20;;;;;;957809;148;27279;-80
2024/01/15 04:16:58;;;;;;;14.03;8.53;;;1.80;90.10;;;;;;957791;149;27278;-80
2024/01/15 04:19:25;;;;;;;17.67;9.87;;;1.80;90.40;;;;;;957714;146;27440;-83
2024/01/15 04:21:51;;;;;;;15.27;9.77;;;1.80;90.20;;;;;;957807;148;27349;-81
2024/01/15 04:24:18;;;;;;;14.10;8.90;;;1.80;90.30;;;;;;957652;148;27343;-80
2024/01/15 04:26:45;;;;;;;15.30;9.30;;;1.90;90.40;;;;;;956487;148;27316;-80
2024/01/15 04:29:11;;;;;;;19.70;10.00;;;1.90;90.50;;;;;;956635;148;27387;-82
2024/01/15 04:31:38;;;;;;;16.00;9.47;;;1.90;90.50;;;;;;956865;148;27439;-79
2024/01/15 04:34:04;;;;;;;16.03;9.70;;;2.00;90.60;;;;;;956593;149;28112;-80
2024/01/15 04:36:31;;;;;;;15.60;9.37;;;2.00;90.60;;;;;;956507;148;27384;-80
2024/01/15 04:38:57;;;;;;;15.23;9.47;;;2.00;90.50;;;;;;956763;148;27327;-81
2024/01/15 04:41:24;;;;;;;18.73;10.03;;;2.00;90.50;;;;;;956924;148;27359;-80
2024/01/15 04:43:51;;;;;;;17.23;9.17;;;2.10;90.40;;;;;;956609;149;27422;-80
2024/01/15 04:46:17;;;;;;;18.60;9.27;;;2.10;90.50;;;;;;956654;148;27341;-80
2024/01/15 04:48:44;;;;;;;15.27;9.87;;;2.10;90.40;;;;;;956699;147;27294;-80
2024/01/15 04:51:10;;;;;;;15.23;9.07;;;2.10;90.40;;;;;;956963;148;27776;-82
2024/01/15 04:53:37;;;;;;;16.53;10.27;;;2.10;90.40;;;;;;956668;148;27426;-79
2024/01/15 04:56:04;;;;;;;11.67;8.73;;;2.10;90.40;;;;;;956751;149;27323;-80
2024/01/15 04:58:30;;;;;;;16.90;10.57;;;2.10;90.40;;;;;;956892;148;27302;-80
2024/01/15 05:00:57;;;;;;;15.67;9.47;;;2.10;90.20;;;;;;957089;148;27288;-81
2024/01/15 05:03:23;;;;;;;15.53;10.43;;;2.10;90.30;;;;;;957044;148;27338;-80
2024/01/15 05:05:50;;;;;;;15.63;9.50;;;2.20;90.30;;;;;;956324;148;27319;-81
2024/01/15 05:08:16;;;;;;;18.00;9.93;;;2.20;90.20;;;;;;956655;149;27365;-80
2024/01/15 05:10:43;;;;;;;13.43;8.33;;;2.20;90.20;;;;;;956823;148;27349;-80
2024/01/15 05:13:10;;;;;;;14.93;8.67;;;2.20;90.20;;;;;;956924;148;27790;-83
2024/01/15 05:15:36;;;;;;;14.30;8.43;;;2.20;90.20;;;;;;956719;148;27451;-79
2024/01/15 05:18:03;;;;;;;15.83;9.33;;;2.20;90.30;;;;;;956219;149;27291;-80
2024/01/15 05:20:29;;;;;;;16.03;9.50;;;2.30;90.20;;;;;;956726;148;27283;-80
2024/01/15 05:22:56;;;;;;;16.27;9.30;;;2.30;90.20;;;;;;956807;148;27311;-83
2024/01/15 05:25:23;;;;;;;14.13;8.93;;;2.30;90.20;;;;;;956688;148;27397;-80
2024/01/15 05:27:52;;;;;;;13.43;8.23;;;2.30;90.00;;;;;;956449;148;27325;-80
2024/01/15 05:30:19;;;;;;;14.87;8.87;;;2.30;90.00;;;;;;956723;148;27295;-80
2024/01/15 05:32:45;;;;;;;15.13;9.63;;;2.30;90.00;;;;;;957113;148;27391;-83
2024/01/15 05:35:12;;;;;;;15.73;8.70;;;2.30;90.00;;;;;;956823;149;27334;-81
2024/01/15 05:37:38;;;;;;;16.93;9.13;;;2.30;90.00;;;;;;956344;149;27307;-80
2024/01/15 05:40:05;;;;;;;15.23;8.57;;;2.30;90.10;;;;;;956385;148;27401;-80
2024/01/15 05:42:32;;;;;;;16.93;9.37;;;2.30;90.10;;;;;;956745;148;27260;-82
2024/01/15 05:44:59;;;;;;;14.80;8.47;;;2.30;90.20;;;;;;956386;149;27350;-79
2024/01/15 05:47:25;;;;;;;16.20;8.77;;;2.30;90.20;;;;;;956568;147;27446;-81
2024/01/15 05:49:51;;;;;;;18.63;9.90;;;2.30;90.20;;;;;;956296;148;27279;-80
2024/01/15 05:52:18;;;;;;;16.63;9.63;;;2.30;90.20;;;;;;956975;148;27327;-80
2024/01/15 05:54:44;;;;;;;13.60;8.80;;;2.30;90.10;;;;;;956783;148;27890;-80
2024/01/15 05:57:11;;;;;;;17.47;9.10;;;2.40;90.20;;;;;;956731;148;27447;-80
2024/01/15 05:59:38;;;;;;;17.10;9.10;;;2.40;90.20;;;;;;957087;148;27401;-80
2024/01/15 06:02:04;;;;;;;16.90;8.77;;;2.40;90.30;;;;;;956563;148;27275;-81
2024/01/15 06:04:31;;;;;;;16.47;9.37;;;2.40;90.30;;;;;;956752;148;27346;-80
2024/01/15 06:06:57;;;;;;;13.93;8.63;;;2.40;90.30;;;;;;956750;148;27375;-80
2024/01/15 06:09:24;;;;;;;13.20;8.87;;;2.40;90.30;;;;;;956935;148;27269;-80
2024/01/15 06:11:51;;;;;;;13.37;8.70;;;2.40;90.40;;;;;;956797;148;27291;-81
2024/01/15 06:14:17;;;;;;;16.43;9.70;;;2.40;90.40;;;;;;956574;148;27307;-81
2024/01/15 06:16:44;;;;;;;17.60;10.10;;;2.50;90.40;;;;;;956825;148;27366;-80
2024/01/15 06:19:10;;;;;;;13.87;8.77;;;2.50;90.30;;;;;;956745;148;27896;-80
2024/01/15 06:21:37;;;;;;;17.57;10.27;;;2.50;90.20;;;;;;956377;148;27292;-80
2024/01/15 06:24:03;;;;;;;15.33;9.53;;;2.50;90.60;;;;;;956567;148;27303;-80
2024/01/15 06:26:30;;;;;;;13.90;8.57;;;2.50;90.20;;;;;;957571;146;27442;-83
2024/01/15 06:28:57;;;;;;;16.47;9.53;;;2.50;90.20;;;;;;958157;147;27357;-80
2024/01/15 06:31:23;;;;;;;14.77;8.80;;;2.50;90.30;;;;;;957835;148;27636;-80
2024/01/15 06:33:50;;;;;;;16.13;9.17;;;2.50;90.30;;;;;;957157;148;27806;-81
2024/01/15 06:36:16;;;;;;;13.43;8.03;;;2.50;90.40;;;;;;957845;148;27268;-81
2024/01/15 06:38:46;;;;;;;18.63;9.63;;;2.50;90.30;;;;;;958084;148;27334;-79
2024/01/15 06:41:12;;;;;;;15.67;9.40;;;2.50;90.40;;;;;;957728;146;27292;-80
2024/01/15 06:43:39;;;;;;;12.93;8.93;;;2.50;90.40;;;;;;958093;148;27403;-80
2024/01/15 06:46:05;;;;;;;15.00;9.57;;;2.50;90.40;;;;;;957544;146;27419;-82
2024/01/15 06:48:32;;;;;;;15.07;8.67;;;2.50;90.50;;;;;;957901;147;27791;-79
2024/01/15 06:50:59;;;;;;;15.37;9.13;;;2.50;90.60;;;;;;957765;146;27291;-80
2024/01/15 06:53:25;;;;;;;15.70;8.67;;;2.50;90.60;;;;;;958053;149;27900;-80
2024/01/15 06:55:52;;;;;;;16.20;8.93;;;2.50;90.70;;;;;;957887;148;27263;-82
2024/01/15 06:58:18;;;;;;;16.57;9.23;;;2.50;90.70;;;;;;957881;149;27345;-80
2024/01/15 07:00:45;;;;;;;15.73;9.13;;;2.50;90.70;;;;;;957817;149;27786;-80
2024/01/15 07:03:12;;;;;;;14.70;9.30;;;2.50;90.80;;;;;;958057;148;27770;-79
2024/01/15 07:05:38;;;;;;;14.17;9.40;;;2.50;90.80;;;;;;957562;148;27360;-79
2024/01/15 07:08:05;;;;;;;16.40;9.77;;;2.50;91.00;;;;;;958037;148;27380;-80
2024/01/15 07:10:31;;;;;;;13.90;8.70;;;2.50;90.90;;;;;;957886;146;28481;-80
2024/01/15 07:12:58;;;;;;;17.13;9.77;;;2.50;90.90;;;;;;957526;146;27292;-80
2024/01/15 07:15:25;;;;;;;17.40;9.57;;;2.50;91.00;;;;;;957743;149;27286;-80
2024/01/15 07:17:51;;;;;;;15.77;9.23;;;2.40;91.20;;;;;;958052;147;27295;-82
2024/01/15 07:20:19;;;;;;;14.57;8.60;;;2.40;91.10;;;;;;957635;149;27833;-81
2024/01/15 07:22:45;;;;;;;15.97;8.87;;;2.40;91.20;;;;;;957739;149;27256;-80
2024/01/15 07:25:12;;;;;;;16.53;9.07;;;2.40;91.30;;;;;;957425;146;27302;-81
2024/01/15 07:27:37;;;;;;;14.70;8.93;;;2.40;91.30;;;;;;963773;148;27353;-81
2024/01/15 07:30:05;;;;;;;13.33;9.37;;;2.40;91.00;;;;;;964256;148;27484;-79
2024/01/15 07:32:31;;;;;;;13.83;8.83;;;2.40;91.30;;;;;;964362;148;27371;-80
2024/01/15 07:34:59;;;;;;;15.40;8.87;;;2.30;91.30;;;;;;963910;148;27359;-80
2024/01/15 07:37:24;;;;;;;15.10;8.97;;;2.30;91.40;;;;;;964021;146;27309;-81
2024/01/15 07:39:51;;;;;;;16.00;9.30;;;2.30;91.50;;;;;;964282;145;27398;-80
2024/01/15 07:42:17;;;;;;;15.37;9.20;;;2.30;91.70;;;;;;963717;146;27331;-82
2024/01/15 07:44:44;;;;;;;15.40;8.67;;;2.40;91.80;;;;;;963300;146;27364;-80
2024/01/15 07:47:10;;;;;;;14.87;9.23;;;2.40;91.90;;;;;;963358;148;27294;-80
2024/01/15 07:49:38;;;;;;;15.03;9.00;;;2.40;92.00;;;;;;963311;148;27336;-83
2024/01/15 07:52:05;;;;;;;12.83;8.57;;;2.40;92.00;;;;;;963096;146;27410;-83
2024/01/15 07:54:31;;;;;;;14.33;8.40;;;2.50;92.00;;;;;;963569;148;27338;-84
2024/01/15 07:56:58;;;;;;;15.97;9.47;;;2.50;92.20;;;;;;962036;148;27342;-83
2024/01/15 07:59:24;;;;;;;15.07;9.00;;;2.50;92.00;;;;;;962295;145;27386;-83
2024/01/15 08:01:51;;;;;;;13.63;8.83;;;2.60;92.10;;;;;;963059;148;27310;-84
2024/01/15 08:04:17;;;;;;;13.60;8.60;;;2.60;92.20;;;;;;963283;145;27422;-82
2024/01/15 08:06:44;;;;;;;15.10;9.40;;;2.70;92.20;;;;;;963432;146;27480;-83
2024/01/15 08:09:11;;;;;;;14.73;9.33;;;2.70;92.40;;;;;;962067;145;27399;-83
2024/01/15 08:11:37;;;;;;;13.67;8.40;;;2.80;92.50;;;;;;963150;147;27269;-83
2024/01/15 08:14:04;;;;;;;14.47;8.93;;;2.90;92.70;;;;;;962136;146;27798;-82
2024/01/15 08:16:30;;;;;;;13.60;8.90;;;3.00;92.80;;;;;;962999;145;27458;-84
2024/01/15 08:18:57;;;;;;;13.13;8.53;;;3.10;92.90;;;;;;961943;147;27349;-84
2024/01/15 08:21:23;;;;;;;12.37;8.40;;;3.20;92.90;;;;;;963200;148;27290;-83
2024/01/15 08:23:50;;;;;;;15.27;10.07;;;3.20;92.70;;;;;;962705;148;27332;-82
2024/01/15 08:26:17;;;;;;;16.70;9.57;;;3.30;92.60;;;;;;963483;146;27462;-83
2024/01/15 08:28:43;;;;;;;14.53;8.83;;;3.40;92.30;;;;;;963239;148;27283;-84
2024/01/15 08:31:10;;;;;;;16.90;9.90;;;3.50;92.10;;;;;;963375;147;27392;-83
2024/01/15 08:33:36;;;;;;;18.23;9.73;;;3.50;91.90;;;;;;962835;148;27298;-83
2024/01/15 08:36:03;;;;;;;15.50;9.17;;;3.50;91.70;;;;;;963391;146;27346;-83
2024/01/15 08:38:32;;;;;;;16.23;9.77;;;3.60;91.90;;;;;;963043;148;27237;-84
2024/01/15 08:41:00;;;;;;;16.87;11.17;;;3.60;91.80;;;;;;962455;148;27285;-80
2024/01/15 08:43:25;;;;;;;15.87;9.63;;;3.60;91.70;;;;;;963028;145;27274;-82
2024/01/15 08:45:52;;;;;;;14.97;9.67;;;3.60;91.60;;;;;;963371;148;27465;-80
2024/01/15 08:48:19;;;;;;;16.03;10.97;;;3.60;91.60;;;;;;963213;146;27306;-80
2024/01/15 08:50:48;;;;;;;15.93;10.33;;;3.60;91.50;;;;;;963408;148;27284;-79
2024/01/15 08:53:14;;;;;;;13.80;9.37;;;3.60;91.60;;;;;;963180;147;27352;-83
2024/01/15 08:55:44;;;;;;;15.13;9.67;;;3.60;91.50;;;;;;962366;146;27896;-81
2024/01/15 08:58:07;;;;;;;13.43;10.00;;;3.60;91.50;;;;;;962068;148;27368;-80
2024/01/15 09:00:34;;;;;;;16.87;9.97;;;3.60;91.60;;;;;;964127;148;27286;-81
2024/01/15 09:03:01;;;;;;;17.23;10.27;;;3.60;91.60;;;;;;963122;148;27506;-82
2024/01/15 09:05:27;;;;;;;15.87;10.37;;;3.60;91.50;;;;;;963379;148;27349;-80
2024/01/15 09:07:54;;;;;;;16.57;9.93;;;3.60;91.40;;;;;;963296;148;27391;-80
2024/01/15 09:10:20;;;;;;;14.20;9.07;;;3.60;91.30;;;;;;962869;147;27291;-81
2024/01/15 09:12:48;;;;;;;14.83;9.60;;;3.60;91.20;;;;;;962989;148;27944;-82
2024/01/15 09:15:14;;;;;;;11.67;8.50;;;3.60;91.10;;;;;;963316;146;27342;-80
2024/01/15 09:17:40;;;;;;;14.57;10.03;;;3.60;90.90;;;;;;963101;148;27285;-82
2024/01/15 09:20:07;;;;;;;14.40;9.53;;;3.60;90.90;;;;;;963445;146;27345;-80
2024/01/15 09:22:33;;;;;;;14.47;8.93;;;3.60;90.80;;;;;;963864;148;27243;-80
2024/01/15 09:25:00;;;;;;;12.03;8.63;;;3.60;90.80;;;;;;963789;148;27322;-82
2024/01/15 09:27:27;;;;;;;14.83;9.70;;;3.60;90.90;;;;;;963428;148;27378;-80
2024/01/15 09:29:53;;;;;;;13.20;8.77;;;3.60;91.10;;;;;;963531;145;27442;-81
2024/01/15 09:32:20;;;;;;;14.27;8.90;;;3.60;91.30;;;;;;962476;146;27323;-81
2024/01/15 09:34:46;;;;;;;14.67;9.70;;;3.60;91.40;;;;;;962958;146;27429;-82
2024/01/15 09:37:13;;;;;;;17.00;9.93;;;3.70;91.50;;;;;;963432;148;27431;-80
2024/01/15 09:39:40;;;;;;;13.97;9.33;;;3.70;91.60;;;;;;962428;145;27426;-80
2024/01/15 09:42:06;;;;;;;16.10;9.53;;;3.80;91.70;;;;;;963020;146;27414;-81
2024/01/15 09:44:33;;;;;;;15.00;9.57;;;3.90;91.70;;;;;;963933;147;27363;-80
2024/01/15 09:46:59;;;;;;;12.70;9.93;;;4.00;91.70;;;;;;963786;147;27353;-80
2024/01/15 09:49:26;;;;;;;12.73;9.00;;;4.00;91.70;;;;;;964085;148;27353;-81
2024/01/15 09:51:52;;;;;;;11.47;9.27;;;4.10;91.60;;;;;;963014;145;27286;-80
2024/01/15 09:54:19;;;;;;;13.30;9.23;;;4.20;91.50;;;;;;964301;145;27334;-80
2024/01/15 09:56:48;;;;;;;14.57;9.30;;;4.20;91.20;;;;;;963981;146;27289;-83
2024/01/15 09:59:18;;;;;;;12.87;9.10;;;4.30;91.00;;;;;;963901;148;27273;-80
2024/01/15 10:01:44;;;;;;;17.00;9.30;;;4.30;90.90;;;;;;963368;146;27403;-80
2024/01/15 10:04:13;;;;;;;11.67;8.97;;;4.40;90.90;;;;;;963908;145;27326;-82
2024/01/15 10:06:40;;;;;;;13.73;8.97;;;4.50;91.10;;;;;;964013;147;27367;-81
2024/01/15 10:09:07;;;;;;;12.23;9.40;;;4.50;91.20;;;;;;958606;146;27468;-80
2024/01/15 10:11:33;;;;;;;12.00;9.10;;;4.60;91.40;;;;;;964069;148;27298;-80
2024/01/15 10:14:00;;;;;;;13.60;9.90;;;4.70;91.50;;;;;;963915;148;27402;-81
2024/01/15 10:16:26;;;;;;;12.93;8.97;;;4.90;91.40;;;;;;963988;147;27430;-79
2024/01/15 10:18:53;;;;;;;11.07;8.40;;;5.00;91.50;;;;;;963929;147;27570;-80
2024/01/15 10:21:19;;;;;;;13.83;9.30;;;5.10;91.40;;;;;;964134;148;27302;-79
2024/01/15 10:23:46;;;;;;;15.40;9.87;;;5.20;91.30;;;;;;964289;148;27274;-82
2024/01/15 10:26:13;;;;;;;13.33;8.87;;;5.40;91.30;;;;;;964364;148;27946;-79
2024/01/15 10:28:39;;;;;;;12.83;8.70;;;5.50;91.30;;;;;;959835;145;27416;-79
2024/01/15 10:31:06;;;;;;;12.63;8.80;;;5.70;91.20;;;;;;956575;149;27323;-80
2024/01/15 10:33:32;;;;;;;12.57;9.20;;;5.80;90.80;;;;;;956188;149;27260;-80
2024/01/15 10:35:59;;;;;;;12.47;9.50;;;5.90;90.40;;;;;;956485;149;27711;-80
2024/01/15 10:38:25;;;;;;;12.10;8.83;;;6.00;90.00;;;;;;956197;148;28530;-79
2024/01/15 10:40:55;;;;;;;15.17;9.17;;;6.10;89.00;;;;;;956634;149;27295;-79
2024/01/15 10:43:21;;;;;;;12.47;9.07;;;6.10;88.00;;;;;;956565;147;27342;-79
2024/01/15 10:45:48;;;;;;;10.93;8.33;;;6.10;86.90;;;;;;956455;149;27354;-80
2024/01/15 10:48:14;;;;;;;13.80;9.87;;;6.10;86.70;;;;;;955512;148;27279;-79
2024/01/15 10:50:41;;;;;;;14.30;10.13;;;6.10;87.20;;;;;;955867;148;27364;-79
2024/01/15 10:53:07;;;;;;;11.30;8.57;;;6.10;86.30;;;;;;956339;149;27299;-82
2024/01/15 10:55:34;;;;;;;11.30;8.80;;;6.00;86.20;;;;;;956516;148;27374;-79
2024/01/15 10:58:01;;;;;;;11.87;8.90;;;6.00;86.10;;;;;;955845;149;27441;-79
2024/01/15 11:00:27;;;;;;;12.30;9.60;;;6.00;86.00;;;;;;956393;149;27400;-87
2024/01/15 11:02:57;;;;;;;15.50;9.17;;;6.00;85.80;;;;;;956702;149;27384;-85
2024/01/15 11:05:23;;;;;;;13.53;9.93;;;6.00;85.70;;;;;;956918;148;27791;-86
2024/01/15 11:07:50;;;;;;;14.27;9.53;;;5.90;85.70;;;;;;956841;149;27283;-87
2024/01/15 11:10:38;;;;;;;16.10;10.43;;;5.90;85.70;;;;;;956811;149;27403;-87
2024/01/15 11:13:05;;;;;;;11.43;8.57;;;5.90;85.80;;;;;;927053;149;27292;-87
2024/01/15 11:15:31;;;;;;;13.37;8.97;;;5.90;85.60;;;;;;956668;149;27334;-81
2024/01/15 11:18:05;;;;;;;12.93;9.17;;;5.90;85.50;;;;;;957111;149;27879;-87
2024/01/15 11:20:27;;;;;;;14.20;8.87;;;5.90;85.40;;;;;;955513;149;27284;-79
2024/01/15 11:22:53;;;;;;;14.40;9.90;;;5.80;85.00;;;;;;956546;149;27252;-80
2024/01/15 11:25:20;;;;;;;13.63;9.13;;;5.80;84.90;;;;;;956624;149;27357;-78
2024/01/15 11:27:52;;;;;;;14.97;9.40;;;5.80;85.00;;;;;;956475;149;27338;-79
2024/01/15 11:30:19;;;;;;;12.73;8.70;;;5.70;85.20;;;;;;944883;149;27410;-79
2024/01/15 11:32:46;;;;;;;13.53;9.40;;;5.80;85.50;;;;;;944086;151;27448;-78
2024/01/15 11:35:13;;;;;;;11.73;8.93;;;5.80;86.10;;;;;;943848;149;27368;-79
2024/01/15 11:37:57;;;;;;;11.77;8.47;;;5.80;86.40;;;;;;944251;151;27336;-80
2024/01/15 11:40:35;;;;;;;11.57;8.37;;;5.80;86.60;;;;;;944778;149;27418;-80
2024/01/15 11:43:01;;;;;;;10.87;8.73;;;5.90;87.10;;;;;;945396;149;27375;-82
2024/01/15 11:45:28;;;;;;;10.17;7.47;;;6.00;87.00;;;;;;945048;151;27384;-79
2024/01/15 11:48:13;;;;;;;10.33;7.80;;;6.10;86.70;;;;;;945215;151;27333;-79
2024/01/15 11:50:42;;;;;;;9.67;7.27;;;6.20;86.80;;;;;;944404;151;27883;-79
2024/01/15 11:53:09;;;;;;;9.93;7.10;;;6.30;87.00;;;;;;945543;151;27481;-82
2024/01/15 11:55:38;;;;;;;10.00;8.10;;;6.30;86.80;;;;;;943475;151;27452;-78
2024/01/15 11:58:05;;;;;;;12.10;8.50;;;6.40;86.80;;;;;;944355;150;27393;-78
2024/01/15 12:00:31;;;;;;;9.40;7.67;;;6.50;86.40;;;;;;942111;150;27305;-79
2024/01/15 12:02:58;;;;;;;11.27;8.67;;;6.60;85.60;;;;;;945510;151;27886;-79
2024/01/15 12:05:24;;;;;;;10.83;8.23;;;6.60;85.00;;;;;;944847;151;27411;-79
2024/01/15 12:07:51;;;;;;;10.07;7.43;;;6.70;84.80;;;;;;945192;150;27379;-81
2024/01/15 12:10:20;;;;;;;11.93;8.40;;;6.70;84.20;;;;;;945300;150;27396;-78
2024/01/15 12:12:50;;;;;;;11.83;8.33;;;6.70;83.50;;;;;;943644;149;27315;-82
2024/01/15 12:15:17;;;;;;;9.80;8.03;;;6.70;82.90;;;;;;945100;151;27360;-79
2024/01/15 12:17:43;;;;;;;9.37;8.17;;;6.70;82.80;;;;;;945161;150;27428;-78
2024/01/15 12:20:10;;;;;;;9.40;7.47;;;6.60;82.60;;;;;;945212;150;27328;-78
2024/01/15 12:22:37;;;;;;;11.33;7.90;;;6.50;82.30;;;;;;944305;151;27320;-81
2024/01/15 12:25:03;;;;;;;8.43;6.90;;;6.50;82.20;;;;;;944878;151;27360;-81
2024/01/15 12:27:30;;;;;;;9.47;7.13;;;6.50;82.30;;;;;;944422;151;27477;-79
2024/01/15 12:29:56;;;;;;;10.60;7.73;;;6.40;82.30;;;;;;951801;149;27366;-79
2024/01/15 12:32:23;;;;;;;8.17;6.77;;;6.30;82.00;;;;;;957401;149;27316;-79
2024/01/15 12:34:50;;;;;;;8.43;6.80;;;6.30;82.10;;;;;;957395;148;27379;-81
2024/01/15 12:37:16;;;;;;;10.13;7.80;;;6.20;82.00;;;;;;957532;148;27441;-79
2024/01/15 12:39:45;;;;;;;8.30;7.00;;;6.20;82.00;;;;;;956650;149;27315;-79